createdAt,value
2018-08-10T00:00:23.656Z,2.55
2018-08-10T00:02:53.695Z,2.37
2018-08-10T00:05:22.821Z,2.08
2018-08-10T00:07:51.748Z,2.37
2018-08-10T00:10:20.720Z,2.25
2018-08-10T00:12:50.845Z,2.55
2018-08-10T00:15:20.869Z,2.33
2018-08-10T00:17:53.050Z,2.00
2018-08-10T00:20:22.065Z,1.92
2018-08-10T00:22:50.957Z,2.10
2018-08-10T00:25:19.875Z,2.20
2018-08-10T00:27:49.022Z,2.30
2018-08-10T00:30:19.006Z,2.10
2018-08-10T00:32:49.182Z,1.90
2018-08-10T00:35:18.181Z,2.80
2018-08-10T00:37:48.037Z,2.25
2018-08-10T00:40:19.439Z,2.27
2018-08-10T00:42:48.389Z,2.70
2018-08-10T00:45:17.931Z,2.45
2018-08-10T00:47:47.490Z,2.72
2018-08-10T00:50:17.230Z,2.20
2018-08-10T00:52:46.827Z,1.98
2018-08-10T00:55:17.029Z,2.45
2018-08-10T00:57:46.438Z,2.00
2018-08-10T01:00:18.501Z,2.50
2018-08-10T01:02:53.896Z,1.80
2018-08-10T01:05:22.907Z,1.60
2018-08-10T01:07:51.899Z,1.92
2018-08-10T01:10:21.266Z,2.00
2018-08-10T01:12:50.275Z,1.80
2018-08-10T01:15:19.267Z,1.72
2018-08-10T01:17:48.255Z,1.80
2018-08-10T01:20:22.839Z,1.70
2018-08-10T01:22:57.640Z,2.35
2018-08-10T01:25:27.596Z,1.67
2018-08-10T01:28:03.817Z,1.92
2018-08-10T01:30:33.992Z,1.80
2018-08-10T01:36:10.362Z,1.60
2018-08-10T01:38:44.330Z,1.75
2018-08-10T01:41:27.481Z,1.40
2018-08-10T01:47:01.530Z,1.40
2018-08-10T01:49:31.453Z,1.57
2018-08-10T01:52:01.458Z,1.45
2018-08-10T01:54:30.503Z,1.50
2018-08-10T01:56:59.441Z,1.95
2018-08-10T01:59:29.471Z,1.50
2018-08-10T02:01:59.054Z,1.40
2018-08-10T02:04:31.191Z,1.50
2018-08-10T02:07:02.337Z,1.35
2018-08-10T02:09:31.286Z,1.30
2018-08-10T02:12:00.382Z,1.40
2018-08-10T02:14:29.731Z,1.30
2018-08-10T02:16:58.726Z,1.15
2018-08-10T02:19:27.712Z,1.07
2018-08-10T02:21:56.972Z,0.98
2018-08-10T02:24:25.920Z,1.22
2018-08-10T02:26:55.389Z,0.70
2018-08-10T02:29:24.396Z,1.07
2018-08-10T02:31:53.400Z,0.72
2018-08-10T02:34:22.452Z,1.07
2018-08-10T02:36:52.326Z,0.90
2018-08-10T02:39:21.248Z,0.70
2018-08-10T02:41:50.873Z,0.90
2018-08-10T02:44:19.909Z,0.65
2018-08-10T02:46:48.918Z,0.70
2018-08-10T02:49:17.939Z,0.47
2018-08-10T02:51:47.028Z,0.70
2018-08-10T02:54:16.507Z,0.65
2018-08-10T02:56:45.636Z,0.60
2018-08-10T02:59:14.622Z,0.60
2018-08-10T03:01:43.598Z,0.42
2018-08-10T03:04:12.691Z,0.60
2018-08-10T03:06:42.880Z,0.50
2018-08-10T03:09:12.134Z,0.70
2018-08-10T03:11:41.899Z,0.60
2018-08-10T03:14:11.035Z,0.40
2018-08-10T03:16:40.134Z,0.42
2018-08-10T03:19:09.127Z,0.33
2018-08-10T03:21:38.180Z,0.47
2018-08-10T03:24:08.448Z,0.50
2018-08-10T03:26:38.378Z,0.50
2018-08-10T03:29:07.362Z,0.47
2018-08-10T03:31:36.498Z,0.37
2018-08-10T03:34:05.489Z,0.60
2018-08-10T03:36:34.369Z,0.40
2018-08-10T03:39:03.420Z,0.50
2018-08-10T03:41:32.639Z,0.60
2018-08-10T03:44:01.717Z,0.42
2018-08-10T03:46:30.977Z,0.60
2018-08-10T03:49:00.093Z,0.40
2018-08-10T03:51:29.100Z,0.20
2018-08-10T03:53:58.127Z,0.47
2018-08-10T03:56:27.265Z,0.60
2018-08-10T03:58:56.352Z,0.37
2018-08-10T04:01:25.315Z,0.57
2018-08-10T04:03:55.689Z,0.40
2018-08-10T04:06:24.938Z,0.37
2018-08-10T04:08:54.128Z,0.35
2018-08-10T04:11:23.252Z,0.40
2018-08-10T04:13:53.100Z,0.43
2018-08-10T04:16:22.190Z,0.60
2018-08-10T04:18:51.103Z,0.20
2018-08-10T04:21:20.185Z,0.45
2018-08-10T04:23:49.923Z,0.40
2018-08-10T04:26:19.820Z,0.55
2018-08-10T04:28:50.978Z,0.30
2018-08-10T04:31:20.785Z,0.13
2018-08-10T04:33:50.248Z,0.98
2018-08-10T04:36:20.214Z,0.35
2018-08-10T04:38:52.810Z,0.30
2018-08-10T04:41:26.519Z,0.57
2018-08-10T04:43:55.660Z,0.40
2018-08-10T04:46:25.208Z,0.53
2018-08-10T04:48:54.779Z,0.42
2018-08-10T04:51:23.763Z,0.42
2018-08-10T04:53:53.136Z,0.53
2018-08-10T04:56:22.097Z,0.40
2018-08-10T04:58:50.995Z,0.35
2018-08-10T05:01:19.912Z,0.20
2018-08-10T05:03:48.900Z,0.60
2018-08-10T05:06:17.869Z,0.30
2018-08-10T05:08:46.949Z,0.40
2018-08-10T05:11:18.180Z,0.65
2018-08-10T05:13:47.177Z,0.50
2018-08-10T05:16:16.125Z,0.37
2018-08-10T05:18:45.030Z,0.45
2018-08-10T05:21:13.963Z,0.33
2018-08-10T05:23:42.988Z,0.88
2018-08-10T05:26:11.875Z,0.30
2018-08-10T05:28:40.811Z,0.50
2018-08-10T05:31:11.912Z,0.20
2018-08-10T05:33:40.796Z,0.40
2018-08-10T05:36:09.722Z,0.25
2018-08-10T05:38:38.660Z,0.30
2018-08-10T05:41:07.537Z,0.72
2018-08-10T05:43:36.550Z,0.37
2018-08-10T05:46:05.389Z,0.45
2018-08-10T05:48:40.418Z,0.60
2018-08-10T05:51:13.558Z,0.47
2018-08-10T05:53:42.799Z,0.50
2018-08-10T05:56:12.244Z,0.65
2018-08-10T05:58:41.205Z,1.07
2018-08-10T06:01:10.222Z,0.50
2018-08-10T06:03:39.262Z,0.50
2018-08-10T06:06:08.068Z,0.70
2018-08-10T06:08:38.542Z,0.50
2018-08-10T06:11:08.732Z,0.50
2018-08-10T06:13:37.670Z,0.75
2018-08-10T06:16:06.682Z,0.47
2018-08-10T06:18:35.576Z,0.70
2018-08-10T06:21:04.528Z,0.30
2018-08-10T06:23:33.510Z,0.53
2018-08-10T06:26:02.476Z,0.80
2018-08-10T06:28:31.547Z,0.30
2018-08-10T06:31:00.448Z,0.25
2018-08-10T06:33:29.341Z,0.72
2018-08-10T06:35:58.473Z,0.40
2018-08-10T06:38:27.419Z,0.30
2018-08-10T06:40:56.534Z,0.33
2018-08-10T06:43:25.616Z,0.47
2018-08-10T06:45:54.651Z,0.42
2018-08-10T06:48:23.523Z,0.55
2018-08-10T06:50:52.444Z,0.47
2018-08-10T06:53:21.338Z,0.37
2018-08-10T06:55:50.281Z,0.40
2018-08-10T07:01:19.128Z,0.50
2018-08-10T07:03:48.641Z,0.72
2018-08-10T07:06:17.674Z,0.45
2018-08-10T07:08:46.742Z,0.78
2018-08-10T07:11:15.628Z,0.62
2018-08-10T07:13:44.709Z,0.60
2018-08-10T07:16:13.504Z,0.70
2018-08-10T07:18:42.489Z,0.40
2018-08-10T07:21:11.345Z,0.45
2018-08-10T07:23:40.416Z,0.40
2018-08-10T07:26:09.387Z,0.55
2018-08-10T07:28:38.458Z,0.20
2018-08-10T07:31:07.845Z,0.53
2018-08-10T07:33:36.798Z,0.42
2018-08-10T07:36:05.875Z,0.68
2018-08-10T07:38:35.133Z,0.50
2018-08-10T07:41:03.949Z,0.57
2018-08-10T07:43:32.849Z,0.50
2018-08-10T07:46:02.052Z,0.40
2018-08-10T07:48:34.592Z,0.72
2018-08-10T07:51:03.719Z,0.70
2018-08-10T07:53:32.712Z,0.80
2018-08-10T07:56:02.384Z,0.60
2018-08-10T07:58:31.471Z,1.05
2018-08-10T08:01:00.361Z,0.57
2018-08-10T08:03:29.257Z,0.80
2018-08-10T08:05:58.284Z,0.80
2018-08-10T08:08:31.001Z,0.90
2018-08-10T08:11:00.167Z,0.90
2018-08-10T08:13:29.097Z,1.10
2018-08-10T08:15:58.096Z,0.70
2018-08-10T08:18:27.232Z,0.80
2018-08-10T08:21:07.871Z,0.60
2018-08-10T08:23:37.059Z,1.02
2018-08-10T08:26:07.192Z,0.70
2018-08-10T08:28:36.677Z,1.10
2018-08-10T08:31:06.180Z,0.55
2018-08-10T08:33:45.240Z,0.70
2018-08-10T08:36:14.255Z,0.98
2018-08-10T08:38:54.688Z,0.72
2018-08-10T08:41:24.047Z,0.78
2018-08-10T08:44:30.831Z,0.62
2018-08-10T08:46:59.856Z,0.65
2018-08-10T08:49:28.825Z,0.60
2018-08-10T08:51:57.857Z,0.65
2018-08-10T08:55:34.949Z,0.55
2018-08-10T08:58:04.057Z,0.42
2018-08-10T09:00:33.253Z,0.78
2018-08-10T09:03:02.275Z,0.50
2018-08-10T09:05:31.259Z,0.60
2018-08-10T09:08:00.152Z,0.90
2018-08-10T09:10:35.860Z,0.70
2018-08-10T09:13:04.834Z,0.50
2018-08-10T09:15:33.774Z,0.60
2018-08-10T09:18:02.826Z,0.70
2018-08-10T09:20:31.735Z,0.70
2018-08-10T09:23:00.755Z,0.60
2018-08-10T09:25:29.919Z,0.80
2018-08-10T09:27:58.819Z,0.93
2018-08-10T09:30:27.707Z,0.53
2018-08-10T09:32:56.748Z,0.40
2018-08-10T09:35:25.640Z,0.62
2018-08-10T09:37:54.662Z,0.90
2018-08-10T09:40:23.628Z,0.53
2018-08-10T09:42:52.672Z,0.50
2018-08-10T09:45:21.589Z,0.47
2018-08-10T09:47:50.970Z,0.60
2018-08-10T09:50:20.439Z,0.72
2018-08-10T09:53:01.664Z,0.60
2018-08-10T09:55:39.215Z,0.50
2018-08-10T09:58:15.386Z,0.53
2018-08-10T10:00:49.616Z,0.33
2018-08-10T10:03:26.275Z,0.40
2018-08-10T10:05:56.568Z,0.53
2018-08-10T10:08:26.072Z,0.47
2018-08-10T10:10:55.088Z,0.40
2018-08-10T10:13:24.028Z,0.60
2018-08-10T10:15:53.089Z,0.93
2018-08-10T10:18:21.979Z,0.82
2018-08-10T10:20:50.951Z,0.37
2018-08-10T10:23:20.075Z,0.70
2018-08-10T10:25:48.990Z,0.70
2018-08-10T10:28:17.980Z,0.90
2018-08-10T10:30:46.881Z,0.68
2018-08-10T10:33:15.788Z,0.80
2018-08-10T10:35:44.857Z,0.47
2018-08-10T10:38:13.770Z,0.78
2018-08-10T10:40:42.702Z,0.70
2018-08-10T10:43:11.692Z,0.50
2018-08-10T10:45:40.560Z,0.75
2018-08-10T10:48:09.625Z,1.00
2018-08-10T10:50:38.654Z,0.50
2018-08-10T10:53:07.630Z,0.53
2018-08-10T10:55:36.675Z,0.50
2018-08-10T10:58:05.540Z,0.40
2018-08-10T11:00:34.435Z,0.47
2018-08-10T11:03:03.467Z,0.60
2018-08-10T11:05:32.453Z,0.60
2018-08-10T11:08:01.382Z,0.40
2018-08-10T11:10:30.302Z,0.98
2018-08-10T11:12:59.281Z,0.85
2018-08-10T11:15:28.196Z,0.68
2018-08-10T11:17:57.197Z,0.40
2018-08-10T11:20:26.164Z,0.62
2018-08-10T11:22:55.223Z,0.65
2018-08-10T11:25:24.302Z,0.62
2018-08-10T11:27:56.025Z,0.75
2018-08-10T11:30:26.160Z,0.60
2018-08-10T11:32:55.044Z,1.10
2018-08-10T11:35:24.016Z,0.85
2018-08-10T11:37:52.959Z,0.70
2018-08-10T11:40:22.060Z,0.80
2018-08-10T11:42:51.017Z,0.82
2018-08-10T11:45:19.883Z,0.88
2018-08-10T11:47:48.906Z,0.90
2018-08-10T11:50:17.942Z,0.80
2018-08-10T11:52:46.883Z,0.90
2018-08-10T11:55:15.865Z,0.53
2018-08-10T11:57:45.264Z,0.60
2018-08-10T12:00:15.489Z,1.00
2018-08-10T12:02:44.679Z,0.93
2018-08-10T12:05:14.459Z,0.72
2018-08-10T12:07:43.368Z,0.72
2018-08-10T12:10:12.357Z,0.70
2018-08-10T12:12:41.291Z,0.60
2018-08-10T12:15:12.204Z,0.68
2018-08-10T12:17:41.161Z,0.90
2018-08-10T12:20:10.620Z,0.60
2018-08-10T12:22:40.564Z,0.65
2018-08-10T12:25:09.656Z,0.80
2018-08-10T12:27:38.585Z,0.70
2018-08-10T12:30:09.617Z,0.90
2018-08-10T12:32:38.657Z,0.62
2018-08-10T12:35:08.129Z,0.70
2018-08-10T12:37:37.276Z,0.57
2018-08-10T12:40:06.391Z,0.72
2018-08-10T12:42:35.290Z,0.50
2018-08-10T12:45:04.501Z,0.50
2018-08-10T12:47:33.529Z,0.88
2018-08-10T12:50:03.214Z,0.70
2018-08-10T12:52:32.234Z,0.90
2018-08-10T12:55:01.931Z,0.70
2018-08-10T12:57:31.634Z,0.60
2018-08-10T13:00:00.867Z,0.98
2018-08-10T13:02:29.916Z,0.57
2018-08-10T13:04:58.816Z,0.70
2018-08-10T13:07:27.851Z,0.62
2018-08-10T13:09:56.914Z,0.70
2018-08-10T13:12:25.914Z,0.50
2018-08-10T13:14:54.943Z,0.75
2018-08-10T13:17:23.950Z,0.60
2018-08-10T13:19:52.980Z,0.62
2018-08-10T13:22:23.328Z,0.80
2018-08-10T13:24:52.333Z,1.17
2018-08-10T13:27:21.323Z,0.90
2018-08-10T13:29:50.321Z,0.70
2018-08-10T13:32:19.233Z,0.98
2018-08-10T13:34:48.231Z,0.70
2018-08-10T13:37:18.868Z,0.60
2018-08-10T13:39:48.903Z,1.10
2018-08-10T13:42:17.925Z,0.70
2018-08-10T13:44:46.992Z,1.10
2018-08-10T13:47:16.005Z,0.75
2018-08-10T13:49:44.995Z,0.93
2018-08-10T13:52:16.360Z,0.80
2018-08-10T13:54:46.554Z,0.82
2018-08-10T13:57:15.507Z,0.88
2018-08-10T13:59:44.500Z,0.88
2018-08-10T14:02:14.156Z,0.82
2018-08-10T14:04:43.039Z,0.70
2018-08-10T14:07:12.231Z,0.75
2018-08-10T14:09:41.427Z,0.88
2018-08-10T14:12:14.239Z,0.80
2018-08-10T14:14:43.728Z,0.72
2018-08-10T14:17:13.527Z,0.80
2018-08-10T14:19:44.047Z,0.70
2018-08-10T14:22:13.163Z,0.75
2018-08-10T14:24:43.875Z,0.68
2018-08-10T14:27:14.026Z,0.82
2018-08-10T14:29:45.754Z,0.80
2018-08-10T14:32:16.373Z,1.10
2018-08-10T14:34:45.359Z,0.95
2018-08-10T14:37:14.376Z,1.10
2018-08-10T14:39:43.715Z,0.80
2018-08-10T14:42:13.834Z,0.72
2018-08-10T14:44:44.193Z,1.00
2018-08-10T14:47:13.255Z,1.20
2018-08-10T14:49:45.085Z,0.60
2018-08-10T14:52:14.720Z,0.90
2018-08-10T14:54:45.078Z,0.80
2018-08-10T14:57:16.304Z,0.90
2018-08-10T14:59:46.746Z,0.88
2018-08-10T15:02:18.995Z,0.80
2018-08-10T15:04:49.811Z,0.85
2018-08-10T15:07:20.395Z,1.10
2018-08-10T15:09:58.422Z,0.90
2018-08-10T15:12:28.673Z,0.80
2018-08-10T15:14:57.424Z,1.12
2018-08-10T15:17:26.396Z,1.15
2018-08-10T15:19:55.524Z,1.02
2018-08-10T15:22:24.443Z,1.00
2018-08-10T15:24:53.447Z,0.80
2018-08-10T15:27:45.699Z,1.40
2018-08-10T15:30:16.742Z,1.27
2018-08-10T15:32:45.764Z,1.15
2018-08-10T15:35:16.087Z,1.25
2018-08-10T15:37:45.599Z,1.30
2018-08-10T15:40:17.306Z,1.62
2018-08-10T15:42:46.276Z,1.30
2018-08-10T15:45:16.319Z,1.10
2018-08-10T15:47:45.902Z,1.20
2018-08-10T15:50:15.141Z,1.42
2018-08-10T15:52:45.142Z,1.12
2018-08-10T15:55:19.095Z,1.10
2018-08-10T15:57:56.264Z,0.90
2018-08-10T16:00:26.015Z,1.20
2018-08-10T16:02:54.951Z,1.40
2018-08-10T16:05:30.586Z,1.15
2018-08-10T16:07:59.660Z,1.00
2018-08-10T16:10:28.666Z,1.10
2018-08-10T16:12:57.861Z,1.30
2018-08-10T16:15:26.821Z,1.10
2018-08-10T16:17:55.851Z,1.22
2018-08-10T16:20:24.940Z,1.10
2018-08-10T16:22:53.978Z,1.07
2018-08-10T16:25:23.012Z,0.98
2018-08-10T16:27:52.194Z,1.25
2018-08-10T16:30:21.252Z,0.90
2018-08-10T16:32:50.190Z,1.20
2018-08-10T16:35:19.165Z,1.17
2018-08-10T16:37:48.572Z,0.93
2018-08-10T16:40:21.671Z,1.25
2018-08-10T16:42:56.008Z,1.22
2018-08-10T16:45:32.033Z,1.10
2018-08-10T16:48:05.215Z,1.10
2018-08-10T16:50:40.508Z,1.00
2018-08-10T16:53:13.604Z,1.07
2018-08-10T16:55:43.551Z,0.90
2018-08-10T16:58:13.347Z,1.10
2018-08-10T17:00:44.126Z,1.00
2018-08-10T17:03:14.007Z,0.82
2018-08-10T17:05:44.173Z,1.00
2018-08-10T17:08:16.004Z,0.85
2018-08-10T17:10:45.761Z,1.60
2018-08-10T17:13:14.716Z,1.42
2018-08-10T17:15:43.756Z,1.10
2018-08-10T17:18:13.997Z,1.15
2018-08-10T17:20:44.021Z,0.80
2018-08-10T17:23:14.707Z,0.90
2018-08-10T17:25:43.679Z,0.90
2018-08-10T17:28:13.710Z,0.72
2018-08-10T17:30:42.845Z,0.80
2018-08-10T17:33:12.315Z,0.85
2018-08-10T17:35:42.883Z,0.90
2018-08-10T17:38:15.661Z,0.82
2018-08-10T17:40:46.688Z,0.93
2018-08-10T17:43:17.984Z,0.90
2018-08-10T17:45:57.578Z,0.90
2018-08-10T17:48:29.779Z,1.05
2018-08-10T17:51:03.230Z,0.75
2018-08-10T17:53:35.006Z,1.00
2018-08-10T17:56:04.356Z,0.95
2018-08-10T17:58:36.130Z,0.68
2018-08-10T18:01:05.763Z,0.80
2018-08-10T18:03:34.723Z,0.80
2018-08-10T18:06:05.544Z,0.72
2018-08-10T18:08:36.479Z,1.02
2018-08-10T18:11:05.596Z,1.10
2018-08-10T18:13:36.039Z,1.07
2018-08-10T18:16:05.900Z,0.90
2018-08-10T18:18:34.861Z,1.30
2018-08-10T18:21:03.820Z,1.05
2018-08-10T18:23:33.300Z,1.05
2018-08-10T18:26:03.334Z,0.78
2018-08-10T18:28:37.461Z,1.10
2018-08-10T18:31:06.646Z,1.20
2018-08-10T18:33:35.579Z,1.20
2018-08-10T18:36:06.595Z,0.88
2018-08-10T18:38:35.533Z,0.95
2018-08-10T18:41:04.505Z,0.90
2018-08-10T18:43:33.465Z,1.00
2018-08-10T18:46:02.412Z,0.90
2018-08-10T18:48:32.024Z,0.93
2018-08-10T18:51:02.066Z,1.00
2018-08-10T18:53:31.005Z,0.90
2018-08-10T18:56:00.057Z,1.00
2018-08-10T18:58:29.162Z,1.32
2018-08-10T19:00:58.059Z,1.02
2018-08-10T19:03:27.072Z,1.30
2018-08-10T19:05:56.324Z,1.05
2018-08-10T19:08:25.502Z,0.88
2018-08-10T19:10:54.386Z,0.90
2018-08-10T19:13:24.085Z,0.70
2018-08-10T19:15:54.072Z,1.22
2018-08-10T19:18:23.106Z,1.02
2018-08-10T19:20:52.667Z,1.10
2018-08-10T19:23:21.722Z,0.78
2018-08-10T19:25:50.714Z,1.10
2018-08-10T19:28:19.683Z,1.30
2018-08-10T19:30:48.576Z,0.90
2018-08-10T19:33:18.034Z,1.07
2018-08-10T19:35:46.983Z,0.90
2018-08-10T19:38:16.031Z,1.02
2018-08-10T19:40:44.998Z,1.12
2018-08-10T19:43:13.907Z,1.00
2018-08-10T19:45:42.930Z,1.10
2018-08-10T19:48:12.128Z,1.00
2018-08-10T19:50:41.072Z,1.42
2018-08-10T19:53:11.035Z,1.10
2018-08-10T19:55:39.986Z,1.70
2018-08-10T19:58:08.938Z,1.80
2018-08-10T20:00:37.910Z,1.40
2018-08-10T20:03:06.961Z,1.25
2018-08-10T20:05:35.855Z,2.00
2018-08-10T20:08:04.822Z,1.72
2018-08-10T20:10:34.059Z,1.60
2018-08-10T20:13:03.010Z,1.60
2018-08-10T20:15:31.989Z,1.30
2018-08-10T20:18:00.942Z,1.57
2018-08-10T20:20:29.900Z,1.40
2018-08-10T20:22:58.854Z,1.30
2018-08-10T20:25:27.820Z,1.40
2018-08-10T20:27:56.870Z,1.27
2018-08-10T20:30:25.876Z,1.20
2018-08-10T20:32:54.868Z,1.47
2018-08-10T20:35:24.053Z,1.50
2018-08-10T20:41:57.710Z,1.20
2018-08-10T20:44:26.684Z,1.60
2018-08-10T20:46:55.764Z,1.20
2018-08-10T20:49:24.829Z,1.45
2018-08-10T20:51:53.820Z,1.25
2018-08-10T20:54:22.713Z,1.20
2018-08-10T20:56:51.773Z,1.22
2018-08-10T20:59:21.069Z,1.50
2018-08-10T21:01:50.045Z,1.30
2018-08-10T21:04:19.161Z,1.27
2018-08-10T21:06:48.702Z,1.52
2018-08-10T21:09:17.610Z,1.77
2018-08-10T21:11:46.679Z,1.20
2018-08-10T21:14:15.589Z,1.45
2018-08-10T21:16:44.586Z,1.52
2018-08-10T21:19:14.384Z,1.05
2018-08-10T21:21:43.179Z,1.20
2018-08-10T21:24:12.335Z,1.12
2018-08-10T21:26:41.346Z,1.32
2018-08-10T21:29:10.247Z,1.20
2018-08-10T21:31:39.262Z,1.22
2018-08-10T21:34:08.242Z,1.30
2018-08-10T21:36:37.232Z,1.50
2018-08-10T21:39:09.039Z,1.30
2018-08-10T21:41:37.994Z,1.32
2018-08-10T21:44:07.262Z,1.20
2018-08-10T21:46:36.473Z,1.40
2018-08-10T21:49:05.961Z,1.35
2018-08-10T21:51:35.323Z,1.20
2018-08-10T21:54:04.368Z,1.25
2018-08-10T21:56:33.338Z,1.27
2018-08-10T21:59:02.325Z,1.42
2018-08-10T22:01:31.542Z,1.30
2018-08-10T22:04:05.685Z,1.30
2018-08-10T22:06:36.594Z,1.52
2018-08-10T22:09:06.978Z,1.52
2018-08-10T22:11:36.043Z,1.65
2018-08-10T22:14:11.337Z,1.50
2018-08-10T22:17:47.256Z,1.32
2018-08-10T22:20:16.334Z,1.60
2018-08-10T22:22:45.343Z,1.45
2018-08-10T22:25:16.520Z,1.17
2018-08-10T22:27:47.395Z,1.30
2018-08-10T22:30:17.413Z,1.60
2018-08-10T22:32:48.173Z,1.60
2018-08-10T22:35:18.141Z,1.67
2018-08-10T22:37:48.642Z,1.30
2018-08-10T22:40:18.388Z,1.22
2018-08-10T22:42:48.834Z,1.82
2018-08-10T22:45:20.089Z,1.52
2018-08-10T22:47:53.506Z,1.52
2018-08-10T22:50:22.624Z,1.32
2018-08-10T22:52:51.609Z,1.47
2018-08-10T22:55:21.312Z,1.70
2018-08-10T22:57:50.268Z,1.60
2018-08-10T23:00:20.413Z,1.50
2018-08-10T23:02:49.749Z,1.50
2018-08-10T23:05:18.710Z,1.40
2018-08-10T23:07:49.698Z,1.32
2018-08-10T23:10:20.962Z,1.60
2018-08-10T23:12:56.024Z,1.50
2018-08-10T23:15:25.605Z,2.02
2018-08-10T23:18:00.367Z,1.47
2018-08-10T23:20:31.190Z,1.65
2018-08-10T23:23:03.219Z,1.92
2018-08-10T23:25:38.572Z,1.67
2018-08-10T23:28:13.547Z,1.85
2018-08-10T23:30:45.952Z,1.72
2018-08-10T23:33:16.300Z,1.70
2018-08-10T23:35:45.207Z,1.87
2018-08-10T23:38:14.163Z,1.67
2018-08-10T23:40:43.048Z,1.62
2018-08-10T23:43:11.970Z,1.90
2018-08-10T23:45:40.905Z,2.00
2018-08-10T23:48:09.843Z,1.90
2018-08-10T23:50:38.815Z,1.55
2018-08-10T23:53:07.965Z,1.80
2018-08-10T23:55:36.863Z,1.98
2018-08-10T23:58:05.851Z,2.03
